• Join FlightAware (Why Join?)
  • Login
  • US Flag 
07:05PM EDT


 

Airport Tracker/Info


-or-


 

Live Flight TrackerFlight Track Log ✈ UAL5887 ✈ 07-Apr-2013 ✈ CYUL - KORD

Flight Track Log - Related Links

Times and Time Zones

All times are in EDT time to prevent confusion due to time zone crossing. See the UAL5887 flight status page for this flight to view local times or setup timezone preferences in your user account.

Time Position Orientation Groundspeed Altitude Reporting Facility
EDT Latitude Longitude Course Direction KTS MPH feet Rate Location/Type
02:23PM 45.4500 -74.0667 270° West 260 299 10,200  Level Toronto Center
02:24PM 45.4815 -74.6556 245° Southwest  Level FlightAware Approximate
02:24PM 45.4500 -74.1833 270° West 290 334 11,100  Level Toronto Center
02:25PM 45.4564 -74.7927 261° West  Level FlightAware Approximate
02:25PM 45.4667 -74.3000 282° West 310 357 12,300  Level Toronto Center
02:26PM 45.4351 -74.9322 256° West  Level FlightAware Approximate
02:26PM 45.5000 -74.4167 292° West 320 368 13,700  Level Toronto Center
02:27PM 45.4167 -75.0716 270° West  Level FlightAware Approximate
02:27PM 45.4833 -74.5333 259° West 300 345 15,200  Level Toronto Center
02:28PM 45.4167 -75.2145 270° West  Level FlightAware Approximate
02:28PM 45.4667 -74.6667 260° West 310 357 16,200  Level Toronto Center
02:29PM 45.4167 -75.3573 270° West  Level FlightAware Approximate
02:29PM 45.4500 -74.7833 259° West 310 357 17,100  Level Toronto Center
02:30PM 45.4333 -74.9000 259° West 320 368 18,500 1,140 Climbing Toronto Center
02:31PM 45.4167 -75.0167 259° West 330 380 19,400 960 Climbing Toronto Center
02:32PM 45.4167 -75.1667 270° West 340 391 20,500 960 Climbing Toronto Center
02:33PM 45.4167 -75.3000 270° West 340 391 21,400 960 Climbing Toronto Center
02:34PM 45.4000 -75.4500 261° West 340 391 22,500 1,020 Climbing Toronto Center
02:35PM 45.4167 -75.5667 282° West 340 391 23,500 900 Climbing Toronto Center
02:36PM 45.4167 -75.7167 270° West 340 391 24,400 900 Climbing Toronto Center
02:37PM 45.4000 -75.8333 259° West 330 380 25,400 960 Climbing Toronto Center
02:38PM 45.3833 -75.9833 261° West 330 380 26,400 960 Climbing Toronto Center
02:39PM 45.4000 -76.1000 282° West 330 380 27,400 960 Climbing Toronto Center
02:40PM 45.3833 -76.2333 260° West 330 380 28,400 900 Climbing Toronto Center
02:41PM 45.3500 -76.3500 248° West 320 368 29,300 960 Climbing Toronto Center
02:42PM 45.3333 -76.4833 260° West 320 368 30,400 960 Climbing Toronto Center
02:43PM 45.3000 -76.6000 248° West 320 368 31,300 900 Climbing Toronto Center
02:44PM 45.2833 -76.7000 257° West 320 368 32,300 960 Climbing Toronto Center
02:45PM 45.2500 -76.8333 250° West 320 368 33,300 900 Climbing Toronto Center
02:46PM 45.2167 -76.9333 245° Southwest 320 368 34,200 900 Climbing Toronto Center
02:47PM 45.1833 -77.0833 253° West 320 368 35,200 720 Climbing Toronto Center
02:48PM 45.1500 -77.2000 248° West 330 380 35,700 360 Climbing Toronto Center
02:49PM 45.1167 -77.3167 248° West 330 380 36,000 120 Climbing Toronto Center
02:50PM 45.1000 -77.4667 261° West 350 403 36,000  Level Toronto Center
02:51PM 45.0667 -77.6000 251° West 370 426 36,000  Level Toronto Center
02:52PM 45.0333 -77.7167 248° West 380 437 36,000  Level Toronto Center
02:53PM 45.0000 -77.8833 254° West 390 449 36,000  Level Toronto Center
02:54PM 44.9500 -78.0333 245° Southwest 400 460 36,000  Level Toronto Center
02:55PM 44.9167 -78.1667 251° West 400 460 36,000  Level Toronto Center
02:57PM 44.8500 -78.4333 251° West 370 426 36,000  Level Toronto Center
02:58PM 44.8167 -78.5667 251° West 360 414 36,000  Level Toronto Center
02:59PM 44.7833 -78.7167 253° West 360 414 36,000  Level Toronto Center
03:00PM 44.7500 -78.8500 251° West 370 426 36,000  Level Toronto Center
03:01PM 44.7000 -78.9833 242° Southwest 370 426 36,000  Level Toronto Center
03:02PM 44.6500 -79.1000 239° Southwest 380 437 36,000  Level Toronto Center
03:03PM 44.6000 -79.2333 242° Southwest 390 449 36,000  Level Toronto Center
03:04PM 44.5500 -79.3833 245° Southwest 400 460 36,000  Level Toronto Center
03:05PM 44.5000 -79.5167 242° Southwest 400 460 36,000  Level Toronto Center
03:06PM 44.4500 -79.6500 242° Southwest 390 449 36,000  Level Toronto Center
03:07PM 44.4000 -79.8000 245° Southwest 390 449 36,000  Level Toronto Center
03:08PM 44.3500 -79.9167 239° Southwest 390 449 36,000  Level Toronto Center
03:09PM 44.3000 -80.0500 242° Southwest 380 437 36,000  Level Toronto Center
03:10PM 44.2500 -80.1833 242° Southwest 380 437 36,000  Level Toronto Center
03:11PM 44.2000 -80.3333 245° Southwest 380 437 36,000  Level Toronto Center
03:12PM 44.1500 -80.4500 239° Southwest 380 437 36,000  Level Toronto Center
03:13PM 44.1000 -80.5667 239° Southwest 380 437 36,000  Level Toronto Center
03:14PM 44.0500 -80.7000 242° Southwest 380 437 36,000  Level Toronto Center
03:15PM 43.9833 -80.8333 235° Southwest 380 437 36,000  Level Toronto Center
03:16PM 43.9333 -80.9833 245° Southwest 380 437 36,000  Level Toronto Center
03:17PM 43.8833 -81.0833 235° Southwest 380 437 36,000  Level Toronto Center
03:18PM 43.8500 -81.2000 248° West 380 437 36,000  Level Toronto Center
03:19PM 43.8000 -81.3500 245° Southwest 370 426 36,000  Level Toronto Center
03:20PM 43.7500 -81.4500 235° Southwest 370 426 36,000  Level Toronto Center
03:21PM 43.7000 -81.6000 245° Southwest 370 426 36,000  Level Toronto Center
03:22PM 43.6500 -81.7000 235° Southwest 370 426 36,000  Level Toronto Center
03:23PM 43.6000 -81.8500 245° Southwest 370 426 36,000  Level Toronto Center
03:24PM 43.5333 -81.9833 235° Southwest 380 437 36,000  Level Toronto Center
03:25PM 43.4833 -82.1167 243° Southwest 390 449 36,000  Level Toronto Center
03:26PM 43.4333 -82.2333 239° Southwest 390 449 36,000 -540 Level Toronto Center
03:27PM 43.3833 -82.3667 243° Southwest 380 437 35,000 -1,140 Descending Toronto Center
03:28PM 43.3500 -82.4833 249° West 370 426 33,800 -1,200 Descending Toronto Center
03:29PM 43.3000 -82.5833 236° Southwest 360 414 32,600 -900 Descending Toronto Center
03:30PM 43.2333 -82.7167 236° Southwest 370 426 32,000 -300 Descending Toronto Center
03:31PM 43.2000 -82.8500 251° West 370 426 32,000  Level Toronto Center
03:32PM 43.1667 -83.0000 253° West 380 437 32,000  Level Toronto Center
03:33PM 43.1333 -83.1333 251° West 380 437 32,000  Level Toronto Center
03:34PM 43.0833 -83.2667 243° Southwest 390 449 32,000  Level Toronto Center
03:35PM 43.0500 -83.4000 251° West 390 449 32,000  Level Toronto Center
03:36PM 43.0167 -83.5333 251° West 390 449 32,000  Level Toronto Center
03:37PM 42.9833 -83.6667 251° West 390 449 32,000  Level Toronto Center
03:38PM 42.9500 -83.8000 251° West 390 449 32,000  Level Toronto Center
03:39PM 42.9333 -83.9667 262° West 390 449 32,000  Level Toronto Center
03:40PM 42.9333 -84.1000 270° West 390 449 32,000  Level Toronto Center
03:41PM 42.9000 -84.2500 253° West 390 449 32,000  Level Toronto Center
03:42PM 42.9000 -84.3833 270° West 390 449 32,000  Level Toronto Center
03:43PM 42.8894 -84.5311 264° West 390 449 32,000  Level Chicago Center
03:44PM 42.8742 -84.6781 262° West 393 452 32,000  Level Chicago Center
03:45PM 42.8594 -84.8242 262° West 390 449 32,000  Level Chicago Center
03:46PM 42.8406 -85.0011 262° West 392 451 32,000  Level Chicago Center
03:47PM 42.8256 -85.1492 262° West 394 453 32,000  Level Chicago Center
03:49PM 42.8086 -85.2969 261° West 395 455 32,000 -120 Level Chicago Center
03:50PM 42.7922 -85.4464 262° West 397 457 31,800 -1,080 Descending Chicago Center
03:51PM 42.7700 -85.5911 258° West 392 451 29,800 -2,280 Descending Chicago Center
03:52PM 42.7431 -85.7406 256° West 399 459 27,200 -2,520 Descending Chicago Center
03:53PM 42.7161 -85.8914 256° West 407 468 24,600 -2,760 Descending Chicago Center
03:54PM 42.6853 -86.0600 256° West 384 442 21,500 -2,220 Descending Chicago Center
03:55PM 42.6603 -86.1942 256° West 370 426 20,100 -780 Descending Chicago Center
03:56PM 42.6356 -86.3242 256° West 357 411 20,000 -480 Descending Chicago Center
03:57PM 42.6108 -86.4561 256° West 359 413 19,200 -1,260 Descending Chicago Center
03:58PM 42.5867 -86.5844 256° West 353 406 17,500 -1,920 Descending Chicago Center
03:59PM 42.5639 -86.7100 256° West 345 397 15,300 -2,160 Descending Chicago Center
04:00PM 42.5331 -86.8286 251° West 337 388 13,100 -2,280 Descending Chicago Center
04:01PM 42.4947 -86.9664 249° West 328 377 10,600 -1,680 Descending Chicago Center
04:02PM 42.4678 -87.0678 250° West 296 341 9,700 -780 Descending Chicago Center
04:03PM 42.4419 -87.1572 249° West 260 299 9,000 -360 Descending Chicago Center
04:04PM 42.4183 -87.2450 250° West 251 289 9,000  Level Chicago Center
04:05PM 42.3942 -87.3364 250° West 255 293 9,000  Level Chicago Center
04:06PM 42.3639 -87.4422 249° West 257 296 9,000 -300 Level Chicago Center
04:07PM 42.3394 -87.5300 249° West 252 290 8,500 -780 Descending Chicago Center
04:08PM 42.2842 -87.5933 220° Southwest 259 298 7,400 -780 Descending Chicago Center
04:09PM 42.2278 -87.6519 218° Southwest 257 296 7,000 -240 Descending Chicago Center
04:10PM 42.1728 -87.7111 219° Southwest 254 292 7,000  Level Chicago Center
04:11PM 42.1075 -87.7836 219° Southwest 255 293 7,000  Level Chicago Center
04:12PM 42.0794 -87.8672 246° West 246 283 7,000  Level Chicago Center
04:13PM 42.0497 -87.9486 244° Southwest 244 281 7,000 -360 Level Chicago Center
04:14PM 42.0500 -88.0333 270° West 200 230 6,300 -960 Descending Chicago TRACON
04:15PM 42.0333 -88.1167 255° West 196 226 5,000 -1,080 Descending Chicago TRACON
04:16PM 42.0333 -88.2000 270° West 206 237 4,100 -540 Descending Chicago TRACON
04:18PM 42.0000 -88.2167 200° South 236 272 4,000 -60 Descending Chicago TRACON
04:19PM 41.9678 -88.1483 122° Southeast 233 268 4,000 -540 Level Chicago Center
04:19PM 41.9667 -88.0667 91° East 195 224 3,000 -1,140 Descending Chicago TRACON
04:21PM 41.9667 -88.0000 90° East 175 201 1,800 -1,020 Descending Chicago TRACON
04:22PM 41.9667 -87.9333 90° East 147 169 900 -900 Descending Chicago TRACON